Time;durP1;ratioP1;P1;durP2;ratioP2;P2;SDS_P1;SDS_P2;PMS_P1;PMS_P2;Temp;Humidity;BMP_temperature;BMP_pressure;BME280_temperature;BME280_humidity;BME280_pressure;Samples;Min_cycle;Max_cycle;Signal;HPM_P1;HPM_P2
2021/12/02 00:01:36;;;;;;;19.85;18.92;;;7.80;81.50;;;;;;5025205;28;20304;-71
2021/12/02 00:04:05;;;;;;;20.77;19.50;;;7.70;82.00;;;;;;5024652;28;20225;-71
2021/12/02 00:06:32;;;;;;;19.05;18.15;;;7.60;82.30;;;;;;5027803;28;20209;-71
2021/12/02 00:08:59;;;;;;;19.02;18.13;;;7.70;82.30;;;;;;5028279;28;20193;-71
2021/12/02 00:11:26;;;;;;;19.23;18.33;;;7.60;82.40;;;;;;5027584;28;20207;-71
2021/12/02 00:13:56;;;;;;;19.33;18.30;;;7.50;83.00;;;;;;5028407;28;20237;-71
2021/12/02 00:16:29;;;;;;;19.13;18.17;;;7.60;83.00;;;;;;5020527;28;20331;-71
2021/12/02 00:21:45;;;;;;;18.90;18.00;;;7.60;83.20;;;;;;5027368;28;20219;-71
2021/12/02 00:24:18;;;;;;;18.02;17.23;;;7.50;83.20;;;;;;5023733;28;20227;-71
2021/12/02 00:26:47;;;;;;;18.88;17.98;;;7.40;83.30;;;;;;5022655;28;20221;-71
2021/12/02 00:29:19;;;;;;;18.50;17.70;;;7.40;83.50;;;;;;5026666;28;20202;-71
2021/12/02 00:31:47;;;;;;;18.85;17.95;;;7.20;83.70;;;;;;5027004;28;20198;-71
2021/12/02 00:34:15;;;;;;;19.30;18.40;;;7.20;83.90;;;;;;5027579;28;20217;-72
2021/12/02 00:36:44;;;;;;;19.20;18.30;;;7.30;83.90;;;;;;5027258;28;20197;-71
2021/12/02 00:39:12;;;;;;;18.45;17.55;;;7.40;83.70;;;;;;5025404;28;20198;-71
2021/12/02 00:41:40;;;;;;;18.30;17.40;;;7.30;83.80;;;;;;5026011;28;20675;-71
2021/12/02 00:44:07;;;;;;;18.17;17.27;;;7.20;83.90;;;;;;5022535;28;20743;-71
2021/12/02 00:46:35;;;;;;;18.60;17.70;;;7.20;84.10;;;;;;5027862;28;20225;-71
2021/12/02 00:49:03;;;;;;;19.00;18.10;;;7.10;84.10;;;;;;5025849;28;20197;-71
2021/12/02 00:51:31;;;;;;;18.55;17.67;;;7.10;84.20;;;;;;5027361;28;20197;-71
2021/12/02 00:54:02;;;;;;;18.30;17.25;;;7.10;84.00;;;;;;5025440;28;20542;-71
2021/12/02 00:56:29;;;;;;;18.55;17.75;;;7.00;84.10;;;;;;5025554;28;20638;-71
2021/12/02 00:58:57;;;;;;;18.45;17.55;;;7.00;84.30;;;;;;5023206;28;20232;-71
2021/12/02 01:01:25;;;;;;;18.50;17.70;;;7.00;83.90;;;;;;5026161;28;20671;-71
2021/12/02 01:03:57;;;;;;;18.25;17.38;;;7.00;84.20;;;;;;5022234;28;20279;-71
2021/12/02 01:06:24;;;;;;;18.42;17.40;;;6.90;84.10;;;;;;5020577;28;20218;-71
2021/12/02 01:08:51;;;;;;;18.35;17.55;;;7.00;83.70;;;;;;5027885;28;20197;-71
2021/12/02 01:11:21;;;;;;;18.10;17.20;;;7.00;83.20;;;;;;5026515;28;20288;-71
2021/12/02 01:13:48;;;;;;;18.85;17.98;;;7.00;83.10;;;;;;5022875;28;20296;-71
2021/12/02 01:16:15;;;;;;;18.92;17.95;;;6.90;83.10;;;;;;5022737;28;20201;-71
2021/12/02 01:18:42;;;;;;;19.75;18.75;;;6.80;83.90;;;;;;5026266;28;20203;-71
2021/12/02 01:21:14;;;;;;;19.10;18.10;;;6.70;84.50;;;;;;5025037;28;20583;-71
2021/12/02 01:23:42;;;;;;;18.85;17.95;;;6.70;85.10;;;;;;5021645;28;20615;-71
2021/12/02 01:26:09;;;;;;;19.42;18.42;;;6.70;85.20;;;;;;5026404;28;20221;-71
2021/12/02 01:28:38;;;;;;;19.33;18.33;;;6.80;84.70;;;;;;5026450;28;20288;-71
2021/12/02 01:31:05;;;;;;;19.08;18.17;;;6.70;84.80;;;;;;5020888;28;20587;-71
2021/12/02 01:33:35;;;;;;;18.50;17.60;;;6.70;84.60;;;;;;5026494;28;20742;-71
2021/12/02 01:36:04;;;;;;;19.08;18.17;;;6.70;84.70;;;;;;5025852;28;20284;-71
2021/12/02 01:38:32;;;;;;;18.67;17.50;;;6.80;84.60;;;;;;5025521;28;20590;-71
2021/12/02 01:41:00;;;;;;;17.80;16.90;;;6.80;84.90;;;;;;5025843;28;20199;-71
2021/12/02 01:43:49;;;;;;;18.20;17.17;;;6.70;89.10;;;;;;5023727;28;20219;-72
2021/12/02 01:46:17;;;;;;;19.70;18.70;;;6.70;87.80;;;;;;5022789;28;20287;-72
2021/12/02 01:48:48;;;;;;;18.83;17.92;;;6.70;86.80;;;;;;5027367;28;20213;-72
2021/12/02 01:51:20;;;;;;;18.67;17.77;;;6.80;86.30;;;;;;5023931;28;20209;-72
2021/12/02 01:53:51;;;;;;;18.90;17.90;;;7.00;85.60;;;;;;5020798;28;20267;-72
2021/12/02 01:56:19;;;;;;;18.55;17.60;;;6.90;85.20;;;;;;5027475;28;20209;-72
2021/12/02 01:58:50;;;;;;;18.27;17.27;;;6.90;85.50;;;;;;5029936;28;20205;-72
2021/12/02 02:01:21;;;;;;;18.25;17.25;;;6.90;86.20;;;;;;5027691;28;20204;-72
2021/12/02 02:03:50;;;;;;;19.65;18.38;;;6.90;86.00;;;;;;5028428;28;20308;-72
2021/12/02 02:06:26;;;;;;;18.95;18.00;;;6.80;85.70;;;;;;5025287;28;20713;-72
2021/12/02 02:08:55;;;;;;;18.48;17.58;;;6.90;85.70;;;;;;5030986;28;20288;-72
2021/12/02 02:11:25;;;;;;;18.85;17.85;;;6.90;85.10;;;;;;5026487;28;20207;-72
2021/12/02 02:13:53;;;;;;;19.10;18.20;;;6.70;85.30;;;;;;5030894;28;20244;-72
2021/12/02 02:16:20;;;;;;;18.55;17.65;;;6.60;85.70;;;;;;5029496;28;20201;-72
2021/12/02 02:18:47;;;;;;;18.13;17.33;;;6.70;86.50;;;;;;5029259;28;20217;-71
2021/12/02 02:21:18;;;;;;;19.15;18.10;;;6.60;87.70;;;;;;5019123;28;20229;-71
2021/12/02 02:23:49;;;;;;;18.50;17.60;;;6.70;86.90;;;;;;5027303;28;20213;-71
2021/12/02 02:26:22;;;;;;;18.40;17.50;;;6.60;86.80;;;;;;5023427;28;20213;-71
2021/12/02 02:28:49;;;;;;;18.00;17.10;;;6.60;86.40;;;;;;5025735;28;20263;-72
2021/12/02 02:31:16;;;;;;;18.67;17.77;;;6.50;86.30;;;;;;5029036;28;20206;-72
2021/12/02 02:33:48;;;;;;;17.98;17.17;;;6.50;86.90;;;;;;5027595;28;20283;-72
2021/12/02 02:36:18;;;;;;;18.17;17.27;;;6.40;87.60;;;;;;5023993;28;20204;-72
2021/12/02 02:38:54;;;;;;;17.77;16.98;;;6.40;88.00;;;;;;5030304;28;20255;-72
2021/12/02 02:41:22;;;;;;;17.35;16.55;;;6.50;87.70;;;;;;5029109;28;20678;-72
2021/12/02 02:43:49;;;;;;;17.95;17.05;;;6.30;87.70;;;;;;5027379;28;20221;-72
2021/12/02 02:46:22;;;;;;;17.42;16.63;;;6.30;87.90;;;;;;5027829;28;20213;-72
2021/12/02 02:48:49;;;;;;;18.02;17.13;;;6.30;88.80;;;;;;5030351;28;20651;-72
2021/12/02 02:51:17;;;;;;;18.05;17.13;;;6.20;88.60;;;;;;5025690;28;20288;-71
2021/12/02 02:53:45;;;;;;;18.15;17.25;;;6.20;88.30;;;;;;5030258;28;20859;-71
2021/12/02 02:56:15;;;;;;;17.60;16.80;;;6.20;88.20;;;;;;5025317;28;20216;-71
2021/12/02 02:58:59;;;;;;;17.50;16.30;;;6.00;89.90;;;;;;5028729;28;20205;-72
2021/12/02 03:01:38;;;;;;;17.65;16.75;;;5.90;94.10;;;;;;5025868;28;20674;-72
2021/12/02 03:04:16;;;;;;;17.23;16.33;;;5.90;91.20;;;;;;5028649;28;20208;-72
2021/12/02 03:06:50;;;;;;;17.90;17.00;;;5.80;92.50;;;;;;5025717;28;20209;-72
2021/12/02 03:09:24;;;;;;;18.15;17.35;;;5.70;91.40;;;;;;5029598;28;20216;-72
2021/12/02 03:11:54;;;;;;;18.05;17.25;;;5.70;90.80;;;;;;5023490;28;20210;-72
2021/12/02 03:14:28;;;;;;;17.73;16.88;;;5.70;90.60;;;;;;5029506;28;20675;-72
2021/12/02 03:16:54;;;;;;;18.00;17.10;;;5.70;90.20;;;;;;5027731;28;20198;-72
2021/12/02 03:19:24;;;;;;;17.87;17.00;;;5.70;90.40;;;;;;5029846;28;20193;-72
2021/12/02 03:21:53;;;;;;;30.35;17.73;;;5.70;90.00;;;;;;5019162;28;20964;-72
2021/12/02 03:24:20;;;;;;;17.70;16.83;;;5.60;93.70;;;;;;5028531;28;20304;-71
2021/12/02 03:26:48;;;;;;;17.20;16.30;;;5.50;93.10;;;;;;5028584;28;20674;-71
2021/12/02 03:29:15;;;;;;;17.20;16.30;;;5.50;93.60;;;;;;5029386;28;20201;-71
2021/12/02 03:31:42;;;;;;;17.48;16.67;;;5.50;92.70;;;;;;5025424;28;20197;-71
2021/12/02 03:34:09;;;;;;;17.90;17.00;;;5.60;92.50;;;;;;5018311;28;20228;-71
2021/12/02 03:36:37;;;;;;;16.88;15.98;;;5.60;91.60;;;;;;5028245;28;20193;-71
2021/12/02 03:39:08;;;;;;;68.88;21.52;;;5.50;94.30;;;;;;5026427;28;20216;-71
2021/12/02 03:41:36;;;;;;;18.30;17.20;;;5.40;93.70;;;;;;5026348;28;20315;-71
2021/12/02 03:44:03;;;;;;;17.08;16.30;;;5.50;93.10;;;;;;5025906;28;20738;-71
2021/12/02 03:46:30;;;;;;;17.30;16.50;;;5.50;92.60;;;;;;5028438;28;20710;-71
2021/12/02 03:48:58;;;;;;;17.15;16.35;;;5.40;93.60;;;;;;5028507;28;20200;-71
2021/12/02 03:51:25;;;;;;;17.10;16.30;;;5.30;93.20;;;;;;5027807;28;20293;-71
2021/12/02 03:53:52;;;;;;;18.60;17.50;;;5.30;92.90;;;;;;5026984;28;20209;-71
2021/12/02 03:56:21;;;;;;;18.27;17.40;;;5.30;92.60;;;;;;5026658;28;20205;-71
2021/12/02 03:58:50;;;;;;;17.92;17.10;;;5.40;92.10;;;;;;5026957;28;20200;-71
2021/12/02 04:01:17;;;;;;;341.45;49.08;;;5.30;92.30;;;;;;5027574;28;20197;-71
2021/12/02 04:03:44;;;;;;;17.85;16.75;;;5.30;93.10;;;;;;5028867;28;20299;-71
2021/12/02 04:06:12;;;;;;;22.20;19.60;;;5.30;93.60;;;;;;5027605;28;20306;-71
2021/12/02 04:08:45;;;;;;;17.30;16.20;;;5.40;93.10;;;;;;5028703;28;20202;-71
2021/12/02 04:11:21;;;;;;;18.38;17.38;;;5.30;93.00;;;;;;5019003;28;20202;-71
2021/12/02 04:14:03;;;;;;;18.25;17.20;;;5.50;91.80;;;;;;5025799;28;20298;-71
2021/12/02 04:16:31;;;;;;;18.15;17.25;;;5.60;90.80;;;;;;5025649;28;20205;-71
2021/12/02 04:18:58;;;;;;;18.55;17.65;;;5.60;90.60;;;;;;5027010;28;20190;-71
2021/12/02 04:21:25;;;;;;;18.27;17.38;;;5.50;90.80;;;;;;5026042;28;20203;-71
2021/12/02 04:23:52;;;;;;;16.80;15.88;;;5.50;90.90;;;;;;5028283;28;20305;-71
2021/12/02 04:26:19;;;;;;;18.70;17.58;;;5.40;94.40;;;;;;5021372;28;20280;-71
2021/12/02 04:28:45;;;;;;;18.92;17.73;;;5.40;94.50;;;;;;5026574;28;20265;-71
2021/12/02 04:31:14;;;;;;;18.38;17.42;;;5.40;93.20;;;;;;5024260;28;20628;-71
2021/12/02 04:33:41;;;;;;;18.25;17.30;;;5.40;93.30;;;;;;5028199;28;20299;-71
2021/12/02 04:36:08;;;;;;;17.30;16.50;;;5.40;92.60;;;;;;5026173;28;20205;-71
2021/12/02 04:38:35;;;;;;;18.88;17.77;;;5.50;92.30;;;;;;5027175;28;20193;-71
2021/12/02 04:41:02;;;;;;;19.00;18.00;;;5.60;91.60;;;;;;5023026;28;20541;-71
2021/12/02 04:43:29;;;;;;;19.50;18.60;;;5.60;91.60;;;;;;5020875;28;20315;-71
2021/12/02 04:45:56;;;;;;;18.85;17.85;;;5.70;91.70;;;;;;5027814;28;20199;-71
2021/12/02 04:48:24;;;;;;;18.70;17.80;;;5.70;91.50;;;;;;5027539;28;20732;-71
2021/12/02 04:50:51;;;;;;;17.77;16.85;;;5.80;91.00;;;;;;5025417;28;20228;-71
2021/12/02 04:53:18;;;;;;;19.92;18.92;;;5.80;91.00;;;;;;5027998;28;20722;-72
2021/12/02 04:55:46;;;;;;;18.80;17.90;;;5.80;91.00;;;;;;5024473;28;20314;-71
2021/12/02 04:58:13;;;;;;;19.73;18.73;;;5.80;90.40;;;;;;5026413;28;20287;-72
2021/12/02 05:00:39;;;;;;;18.52;17.52;;;5.80;90.30;;;;;;5024528;28;20227;-71
2021/12/02 05:03:06;;;;;;;19.48;18.30;;;5.80;90.00;;;;;;5027911;28;20241;-72
2021/12/02 05:05:35;;;;;;;19.40;18.30;;;5.80;90.10;;;;;;5025406;28;20571;-71
2021/12/02 05:08:03;;;;;;;18.65;17.63;;;5.90;89.90;;;;;;5027218;28;20217;-71
2021/12/02 05:10:31;;;;;;;20.35;19.33;;;5.80;90.00;;;;;;5026445;28;20586;-71
2021/12/02 05:12:58;;;;;;;19.35;18.35;;;5.90;90.20;;;;;;5024938;28;20734;-71
2021/12/02 05:15:25;;;;;;;18.50;17.50;;;5.90;90.20;;;;;;5025214;28;20324;-71
2021/12/02 05:17:52;;;;;;;19.75;18.73;;;6.00;89.80;;;;;;5027894;28;20193;-71
2021/12/02 05:20:19;;;;;;;19.02;17.98;;;6.10;89.80;;;;;;5026455;28;20202;-72
2021/12/02 05:22:47;;;;;;;18.02;17.20;;;6.10;89.10;;;;;;5026432;28;20654;-71
2021/12/02 05:25:14;;;;;;;18.10;17.20;;;6.00;89.30;;;;;;5018371;28;20198;-71
2021/12/02 05:27:41;;;;;;;18.77;17.80;;;6.00;89.60;;;;;;5027480;28;20231;-71
2021/12/02 05:30:09;;;;;;;19.67;18.58;;;6.00;90.20;;;;;;5028763;28;20611;-71
2021/12/02 05:32:36;;;;;;;18.20;17.23;;;5.90;89.80;;;;;;5031398;28;20934;-71
2021/12/02 05:35:04;;;;;;;18.10;17.20;;;6.00;89.90;;;;;;5031800;28;20197;-71
2021/12/02 05:37:31;;;;;;;19.02;17.90;;;6.10;89.60;;;;;;5031302;28;20204;-71
2021/12/02 05:40:00;;;;;;;19.25;18.25;;;6.00;89.60;;;;;;5030630;28;20189;-72
2021/12/02 05:42:26;;;;;;;18.80;17.80;;;6.00;89.50;;;;;;5026212;28;20271;-72
2021/12/02 05:44:54;;;;;;;18.45;17.60;;;6.00;89.20;;;;;;5032240;28;20214;-71
2021/12/02 05:47:21;;;;;;;19.73;18.58;;;6.00;89.10;;;;;;5031162;28;20213;-71
2021/12/02 05:49:48;;;;;;;17.83;16.90;;;5.90;89.10;;;;;;5022207;28;20276;-73
2021/12/02 05:52:15;;;;;;;18.00;17.10;;;5.80;89.90;;;;;;5028883;28;20208;-73
2021/12/02 05:54:42;;;;;;;18.10;17.15;;;5.80;91.60;;;;;;5027096;28;20309;-72
2021/12/02 05:57:10;;;;;;;18.48;17.58;;;5.90;90.60;;;;;;5030198;28;20276;-73
2021/12/02 05:59:37;;;;;;;18.90;18.00;;;5.90;89.70;;;;;;5030671;28;20194;-73
2021/12/02 06:02:06;;;;;;;19.60;18.40;;;5.90;89.50;;;;;;5029049;28;20276;-73
2021/12/02 06:04:34;;;;;;;19.08;17.95;;;5.90;89.20;;;;;;5031868;28;20221;-74
2021/12/02 06:07:01;;;;;;;19.08;17.98;;;6.00;88.90;;;;;;5031443;28;20198;-73
2021/12/02 06:09:28;;;;;;;20.05;18.85;;;5.90;88.70;;;;;;5030546;28;20228;-73
2021/12/02 06:11:55;;;;;;;18.25;17.25;;;6.00;88.90;;;;;;5029250;28;20197;-73
2021/12/02 06:14:23;;;;;;;17.65;15.88;;;5.90;88.80;;;;;;5030340;28;20264;-72
2021/12/02 06:16:50;;;;;;;19.05;18.05;;;5.90;89.00;;;;;;5023446;28;20201;-71
2021/12/02 06:19:17;;;;;;;18.02;17.13;;;5.90;89.10;;;;;;5029097;28;20203;-72
2021/12/02 06:21:44;;;;;;;18.90;18.00;;;5.80;89.10;;;;;;5030109;28;20680;-73
2021/12/02 06:24:11;;;;;;;20.50;19.40;;;5.80;89.20;;;;;;5027006;28;20292;-73
2021/12/02 06:26:38;;;;;;;19.75;18.55;;;5.70;89.30;;;;;;5028068;28;20466;-72
2021/12/02 06:29:05;;;;;;;20.48;19.20;;;5.80;89.50;;;;;;5029876;28;20241;-72
2021/12/02 06:31:33;;;;;;;19.40;18.40;;;5.70;89.50;;;;;;5029716;28;20205;-72
2021/12/02 06:34:00;;;;;;;20.70;19.40;;;5.70;89.50;;;;;;5029769;28;20213;-72
2021/12/02 06:36:27;;;;;;;19.95;19.05;;;5.70;89.50;;;;;;5024248;28;20642;-72
2021/12/02 06:38:54;;;;;;;19.75;18.75;;;5.70;89.90;;;;;;5027757;28;20185;-73
2021/12/02 06:41:21;;;;;;;20.80;19.70;;;5.60;90.00;;;;;;5025802;28;20197;-72
2021/12/02 06:43:47;;;;;;;20.30;19.20;;;5.60;89.90;;;;;;5026984;28;21726;-72
2021/12/02 06:46:14;;;;;;;17.63;16.83;;;5.70;89.10;;;;;;5023541;28;20756;-73
2021/12/02 06:48:43;;;;;;;19.77;18.77;;;5.70;88.70;;;;;;5027524;28;21198;-73
2021/12/02 06:51:13;;;;;;;19.67;18.42;;;5.60;89.00;;;;;;5029262;28;20251;-73
2021/12/02 06:53:40;;;;;;;18.60;17.70;;;5.50;89.50;;;;;;5030367;28;20217;-72
2021/12/02 06:56:07;;;;;;;20.33;19.23;;;5.40;89.30;;;;;;5028238;28;20292;-72
2021/12/02 06:58:34;;;;;;;18.73;17.83;;;5.20;89.90;;;;;;5029194;28;20638;-72
2021/12/02 07:01:01;;;;;;;21.30;20.30;;;5.20;90.40;;;;;;5025070;28;20253;-72
2021/12/02 07:03:28;;;;;;;18.67;17.67;;;5.10;90.40;;;;;;5028935;28;20540;-72
2021/12/02 07:05:56;;;;;;;18.23;17.35;;;5.10;91.70;;;;;;5027756;28;20194;-73
2021/12/02 07:08:23;;;;;;;20.13;19.13;;;5.00;91.60;;;;;;5026985;28;20298;-71
2021/12/02 07:10:51;;;;;;;19.60;18.67;;;5.00;91.50;;;;;;5028020;28;20702;-72
2021/12/02 07:13:18;;;;;;;20.50;19.42;;;5.00;91.30;;;;;;5023433;28;20312;-72
2021/12/02 07:15:50;;;;;;;19.05;18.15;;;5.00;91.10;;;;;;5025823;28;20651;-70
2021/12/02 07:18:17;;;;;;;74.82;24.25;;;5.00;91.60;;;;;;5029943;28;20203;-70
2021/12/02 07:20:46;;;;;;;25.58;19.50;;;4.90;92.20;;;;;;5026700;28;20632;-72
2021/12/02 07:23:16;;;;;;;18.60;17.60;;;4.90;92.80;;;;;;5030820;28;20257;-72
2021/12/02 07:25:43;;;;;;;81.88;23.52;;;5.00;94.00;;;;;;5027687;28;20197;-73
2021/12/02 07:28:12;;;;;;;20.30;19.05;;;5.10;93.30;;;;;;5027035;28;20706;-72
2021/12/02 07:30:39;;;;;;;20.08;18.90;;;5.10;92.60;;;;;;5027566;28;20201;-73
2021/12/02 07:33:08;;;;;;;20.80;19.70;;;5.20;91.90;;;;;;5030573;28;20231;-74
2021/12/02 07:35:35;;;;;;;19.92;18.92;;;5.20;91.50;;;;;;5027712;28;20410;-71
2021/12/02 07:38:04;;;;;;;171.77;32.38;;;5.10;91.70;;;;;;5029479;28;20211;-72
2021/12/02 07:40:34;;;;;;;17.85;16.95;;;5.20;91.70;;;;;;5024208;28;20288;-70
2021/12/02 07:43:02;;;;;;;19.23;18.23;;;5.20;94.20;;;;;;5030517;28;20283;-73
2021/12/02 07:45:32;;;;;;;19.83;18.83;;;5.10;92.50;;;;;;5027915;28;20194;-71
2021/12/02 07:48:00;;;;;;;19.85;18.85;;;5.30;91.90;;;;;;5029708;28;20288;-71
2021/12/02 07:50:27;;;;;;;19.52;18.45;;;5.30;91.10;;;;;;5027778;28;20201;-71
2021/12/02 07:52:56;;;;;;;19.95;18.95;;;5.40;90.50;;;;;;5030415;28;20224;-72
2021/12/02 07:55:25;;;;;;;71.72;21.65;;;5.50;91.40;;;;;;5028426;28;20201;-71
2021/12/02 07:57:54;;;;;;;18.15;17.30;;;5.60;93.10;;;;;;5025799;28;20698;-72
2021/12/02 08:00:22;;;;;;;80.22;23.40;;;5.70;92.80;;;;;;5023715;28;20219;-72
2021/12/02 08:02:52;;;;;;;16.88;15.98;;;5.80;91.90;;;;;;5029534;28;20231;-77
2021/12/02 08:05:21;;;;;;;18.17;17.38;;;5.80;94.50;;;;;;5027604;28;20229;-73
2021/12/02 08:07:48;;;;;;;17.92;16.60;;;6.00;93.40;;;;;;5033672;28;20198;-79
2021/12/02 08:10:16;;;;;;;18.55;17.60;;;6.10;92.70;;;;;;5032517;28;20624;-72
2021/12/02 08:12:47;;;;;;;19.15;18.05;;;6.30;92.00;;;;;;5026387;28;20225;-78
2021/12/02 08:15:17;;;;;;;19.08;17.70;;;6.50;90.70;;;;;;5020699;28;20252;-74
2021/12/02 08:17:45;;;;;;;19.08;17.92;;;6.60;90.40;;;;;;5029955;28;20201;-73
2021/12/02 08:20:13;;;;;;;20.17;19.10;;;6.70;89.10;;;;;;5027981;28;20613;-72
2021/12/02 08:22:40;;;;;;;20.50;19.48;;;7.00;87.20;;;;;;5019373;28;20280;-74
2021/12/02 08:25:08;;;;;;;21.50;20.30;;;7.00;87.20;;;;;;5028823;28;20284;-73
2021/12/02 08:27:35;;;;;;;21.15;20.02;;;7.00;85.20;;;;;;5029109;28;20200;-76
2021/12/02 08:30:03;;;;;;;20.77;19.52;;;6.90;85.10;;;;;;5028226;28;20318;-72
2021/12/02 08:32:35;;;;;;;20.00;18.90;;;6.90;86.40;;;;;;5025660;28;20841;-71
2021/12/02 08:35:01;;;;;;;19.75;18.67;;;6.90;88.60;;;;;;5023876;28;20651;-70
2021/12/02 08:37:31;;;;;;;21.17;20.15;;;7.00;89.30;;;;;;5022945;28;20229;-70
2021/12/02 08:39:59;;;;;;;20.85;19.65;;;7.10;87.40;;;;;;5028759;28;20259;-71
2021/12/02 08:42:27;;;;;;;23.08;21.77;;;7.20;86.00;;;;;;5027753;28;20293;-71
2021/12/02 08:44:54;;;;;;;21.23;20.13;;;7.30;85.60;;;;;;5028693;28;20699;-72
2021/12/02 08:47:22;;;;;;;22.25;21.05;;;7.40;86.40;;;;;;5023361;28;20647;-71
2021/12/02 08:49:54;;;;;;;22.08;20.85;;;7.60;84.70;;;;;;5009820;28;20217;-71
2021/12/02 08:52:21;;;;;;;21.88;20.67;;;7.70;88.20;;;;;;5026322;28;20255;-71
2021/12/02 08:54:49;;;;;;;21.50;20.30;;;7.70;85.50;;;;;;5020231;28;20300;-72
2021/12/02 08:57:17;;;;;;;22.92;21.70;;;7.70;87.40;;;;;;5023782;28;20201;-71
2021/12/02 08:59:44;;;;;;;21.48;20.38;;;7.70;83.90;;;;;;5022244;28;20208;-72
2021/12/02 09:02:12;;;;;;;23.17;21.77;;;7.70;85.20;;;;;;5021963;28;20213;-72
2021/12/02 09:04:39;;;;;;;21.65;20.55;;;7.80;83.70;;;;;;5020985;28;20736;-72
2021/12/02 09:07:08;;;;;;;22.60;21.50;;;7.70;84.30;;;;;;5026609;28;20284;-70
2021/12/02 09:09:36;;;;;;;22.70;21.55;;;7.70;84.00;;;;;;5027940;28;20241;-72
2021/12/02 09:12:03;;;;;;;22.55;21.35;;;7.80;83.20;;;;;;5025153;28;20259;-72
2021/12/02 09:14:31;;;;;;;22.90;21.70;;;7.70;82.70;;;;;;5026996;28;20305;-71
2021/12/02 09:16:58;;;;;;;22.80;21.60;;;7.70;82.80;;;;;;5029189;28;20201;-72
2021/12/02 09:19:25;;;;;;;22.60;21.17;;;7.70;82.40;;;;;;5022187;28;20289;-72
2021/12/02 09:21:52;;;;;;;23.42;22.00;;;7.80;82.30;;;;;;5021971;28;20280;-72
2021/12/02 09:24:24;;;;;;;22.10;20.98;;;7.90;82.90;;;;;;5027845;28;20209;-73
2021/12/02 09:26:52;;;;;;;22.73;21.52;;;8.00;81.90;;;;;;5027380;28;20255;-72
2021/12/02 09:29:20;;;;;;;22.98;21.77;;;8.00;82.20;;;;;;5028171;28;20300;-72
2021/12/02 09:31:57;;;;;;;22.00;20.90;;;8.00;81.70;;;;;;5026452;28;20287;-70
2021/12/02 09:34:25;;;;;;;24.92;23.73;;;8.10;80.90;;;;;;5025635;28;20390;-71
2021/12/02 09:36:52;;;;;;;23.02;21.88;;;8.20;80.70;;;;;;5026437;28;20281;-72
2021/12/02 09:39:21;;;;;;;24.60;23.40;;;8.20;80.60;;;;;;5027881;28;20204;-71
2021/12/02 09:41:48;;;;;;;22.70;21.60;;;8.30;80.10;;;;;;5027919;28;20193;-72
2021/12/02 09:44:16;;;;;;;23.23;21.80;;;8.20;80.40;;;;;;5022581;28;20305;-71
2021/12/02 09:46:43;;;;;;;22.52;21.42;;;8.00;82.30;;;;;;5025874;28;20262;-72
2021/12/02 09:49:12;;;;;;;22.75;21.42;;;8.00;81.20;;;;;;5028606;28;20213;-71
2021/12/02 09:51:46;;;;;;;22.77;21.50;;;8.00;81.50;;;;;;5026166;28;20667;-71
2021/12/02 09:54:16;;;;;;;23.15;21.58;;;7.80;83.30;;;;;;5023279;28;20223;-72
2021/12/02 09:56:46;;;;;;;22.10;21.00;;;7.80;82.60;;;;;;5026525;28;20209;-71
2021/12/02 09:59:24;;;;;;;23.90;22.60;;;7.70;83.00;;;;;;5024882;28;20194;-72
2021/12/02 10:01:58;;;;;;;22.40;21.30;;;7.70;82.50;;;;;;5024309;28;20749;-72
2021/12/02 10:04:26;;;;;;;22.63;21.40;;;7.80;82.40;;;;;;5027973;28;20224;-72
2021/12/02 10:07:05;;;;;;;21.75;20.55;;;7.60;81.80;;;;;;5025568;28;20200;-71
2021/12/02 10:09:40;;;;;;;21.52;20.42;;;7.60;81.90;;;;;;5028245;28;20308;-72
2021/12/02 10:12:14;;;;;;;22.20;20.85;;;7.20;83.10;;;;;;5021455;28;20580;-70
2021/12/02 10:14:49;;;;;;;21.60;20.50;;;6.70;84.70;;;;;;5025166;28;20340;-71
2021/12/02 10:17:20;;;;;;;21.98;20.92;;;6.30;85.00;;;;;;5030305;28;20204;-71
2021/12/02 10:20:14;;;;;;;21.25;20.25;;;6.00;86.20;;;;;;5031000;28;20189;-72
2021/12/02 10:22:44;;;;;;;20.85;19.85;;;5.80;86.00;;;;;;5019184;28;20243;-73
2021/12/02 10:25:11;;;;;;;21.25;20.00;;;5.70;87.00;;;;;;5025079;28;20198;-71
2021/12/02 10:28:02;;;;;;;20.95;19.85;;;5.70;87.20;;;;;;5031358;28;20229;-72
2021/12/02 10:30:29;;;;;;;19.50;18.50;;;5.60;88.20;;;;;;5029268;28;20301;-72
2021/12/02 10:32:56;;;;;;;19.83;18.92;;;5.60;88.50;;;;;;5023592;28;20215;-71
2021/12/02 10:35:38;;;;;;;19.58;18.58;;;5.60;88.40;;;;;;5028299;28;20666;-73
2021/12/02 10:38:05;;;;;;;19.77;18.83;;;5.70;88.30;;;;;;5030860;28;20209;-71
2021/12/02 10:40:36;;;;;;;19.27;18.38;;;5.70;89.70;;;;;;5029394;28;21053;-72
2021/12/02 10:43:10;;;;;;;19.20;18.30;;;6.00;88.90;;;;;;5030698;28;20244;-72
2021/12/02 10:45:37;;;;;;;20.55;19.30;;;6.10;88.80;;;;;;5025580;28;20204;-72
2021/12/02 10:48:04;;;;;;;28.42;26.23;;;6.20;88.80;;;;;;5030157;28;20197;-73
2021/12/02 10:50:40;;;;;;;21.17;19.98;;;6.30;88.70;;;;;;5028189;28;20216;-73
2021/12/02 10:53:07;;;;;;;21.92;20.73;;;6.30;88.20;;;;;;5030150;28;20304;-73
2021/12/02 10:55:34;;;;;;;18.63;17.73;;;6.30;88.00;;;;;;5024748;28;20546;-74
2021/12/02 10:58:02;;;;;;;19.35;18.45;;;6.30;87.80;;;;;;5022886;28;20198;-74
2021/12/02 11:00:33;;;;;;;21.67;19.58;;;6.30;87.40;;;;;;5028455;28;20190;-72
2021/12/02 11:03:08;;;;;;;19.80;18.90;;;6.30;89.70;;;;;;5029426;28;20252;-70
2021/12/02 11:05:36;;;;;;;18.83;17.92;;;6.30;87.40;;;;;;5029057;28;20189;-71
2021/12/02 11:08:06;;;;;;;18.80;17.88;;;6.20;87.50;;;;;;5018040;28;20777;-70
2021/12/02 11:10:36;;;;;;;20.25;19.15;;;6.10;85.70;;;;;;5027902;28;20634;-72
2021/12/02 11:13:04;;;;;;;18.60;17.80;;;5.90;86.60;;;;;;5029357;28;20217;-71
2021/12/02 11:15:34;;;;;;;19.10;18.20;;;5.90;87.60;;;;;;5027255;28;20198;-73
2021/12/02 11:18:03;;;;;;;18.40;17.40;;;5.80;87.20;;;;;;5028903;28;20687;-71
2021/12/02 11:20:33;;;;;;;18.42;17.25;;;5.80;87.50;;;;;;5028798;28;20198;-72
2021/12/02 11:23:04;;;;;;;19.00;18.10;;;5.80;87.20;;;;;;5022697;28;20217;-71
2021/12/02 11:25:31;;;;;;;19.10;18.30;;;5.80;86.30;;;;;;5018800;28;20557;-72
2021/12/02 11:28:04;;;;;;;19.30;18.40;;;5.70;86.40;;;;;;5024057;28;20208;-72
2021/12/02 11:30:33;;;;;;;20.65;19.75;;;5.60;85.50;;;;;;5024986;28;20267;-71
2021/12/02 11:33:03;;;;;;;19.20;18.30;;;5.70;84.70;;;;;;5027857;28;20217;-71
2021/12/02 11:35:33;;;;;;;19.25;18.38;;;5.40;85.50;;;;;;5025955;28;20195;-70
2021/12/02 11:38:06;;;;;;;18.85;17.95;;;5.40;85.40;;;;;;5021554;28;20203;-72
2021/12/02 11:40:36;;;;;;;20.10;19.10;;;5.30;86.60;;;;;;5022067;28;20698;-71
2021/12/02 11:43:03;;;;;;;20.27;19.27;;;5.40;86.30;;;;;;5022981;28;20217;-71
2021/12/02 11:45:36;;;;;;;20.38;19.48;;;5.40;85.90;;;;;;5021924;28;21856;-70
2021/12/02 11:48:03;;;;;;;31.38;20.42;;;5.10;85.70;;;;;;5028622;28;20198;-72
2021/12/02 11:50:31;;;;;;;19.35;18.38;;;5.20;87.20;;;;;;5027166;28;20316;-71
2021/12/02 11:52:59;;;;;;;19.30;18.40;;;5.40;87.90;;;;;;5028450;28;20217;-71
2021/12/02 11:55:28;;;;;;;19.73;18.83;;;5.60;85.60;;;;;;5023941;28;20295;-72
2021/12/02 11:57:55;;;;;;;20.15;19.20;;;5.70;84.20;;;;;;5022022;28;20197;-72
2021/12/02 12:00:25;;;;;;;19.80;18.75;;;5.80;84.20;;;;;;5024280;28;20453;-69
2021/12/02 12:02:57;;;;;;;19.15;18.25;;;6.00;84.30;;;;;;5029427;28;20213;-71
2021/12/02 12:05:28;;;;;;;20.38;19.38;;;6.20;83.20;;;;;;5027735;28;20203;-71
2021/12/02 12:07:55;;;;;;;19.80;18.80;;;6.10;83.10;;;;;;5020053;28;20692;-71
2021/12/02 12:10:30;;;;;;;20.58;18.70;;;6.20;83.90;;;;;;5025597;28;20239;-72
2021/12/02 12:13:12;;;;;;;19.10;18.20;;;6.30;85.60;;;;;;5034891;28;20303;-71
2021/12/02 12:15:42;;;;;;;21.63;20.63;;;6.40;85.80;;;;;;5028237;28;20567;-70
2021/12/02 12:18:19;;;;;;;22.30;21.10;;;6.40;83.20;;;;;;5028529;28;20287;-71
2021/12/02 12:21:04;;;;;;;20.58;19.58;;;6.40;83.60;;;;;;5027998;28;20201;-71
2021/12/02 12:23:34;;;;;;;21.55;20.30;;;6.60;84.00;;;;;;5021742;28;20304;-71
2021/12/02 12:26:29;;;;;;;21.63;20.52;;;6.90;84.10;;;;;;5025696;28;20193;-71
2021/12/02 12:29:21;;;;;;;22.85;21.75;;;7.10;84.20;;;;;;5015806;28;20283;-71
2021/12/02 12:32:22;;;;;;;22.05;20.95;;;6.70;79.90;;;;;;5022906;28;20201;-71
2021/12/02 12:34:57;;;;;;;21.00;20.00;;;6.60;82.00;;;;;;5010756;28;20254;-71
2021/12/02 12:37:59;;;;;;;22.38;21.08;;;6.70;81.70;;;;;;5022498;28;20235;-71
2021/12/02 12:40:30;;;;;;;20.80;19.80;;;6.70;82.30;;;;;;5019274;28;20197;-71
2021/12/02 12:43:17;;;;;;;22.20;21.10;;;6.70;82.60;;;;;;5028681;28;20591;-71
2021/12/02 12:45:45;;;;;;;22.17;20.85;;;6.90;80.80;;;;;;5027243;28;20189;-71
2021/12/02 12:48:27;;;;;;;22.50;21.40;;;6.80;82.50;;;;;;5028583;28;20678;-71
2021/12/02 12:51:27;;;;;;;23.70;22.50;;;6.50;80.80;;;;;;5027770;28;20592;-71